Time;durP1;ratioP1;P1;durP2;ratioP2;P2;SDS_P1;SDS_P2;PMS_P1;PMS_P2;Temp;Humidity;BMP_temperature;BMP_pressure;BME280_temperature;BME280_humidity;BME280_pressure;Samples;Min_cycle;Max_cycle;Signal;HPM_P1;HPM_P2
2022/09/29 00:01:31;;;;;;;3.80;3.50;;;10.80;86.00;;;;;;5019198;28;20397;-61
2022/09/29 00:03:57;;;;;;;4.13;3.58;;;10.80;86.10;;;;;;5017237;28;20045;-61
2022/09/29 00:06:22;;;;;;;4.05;3.72;;;10.80;86.20;;;;;;5019593;28;20117;-61
2022/09/29 00:08:48;;;;;;;3.72;3.42;;;10.80;86.20;;;;;;5018028;28;20497;-60
2022/09/29 00:11:16;;;;;;;3.75;3.50;;;10.80;86.30;;;;;;5016476;28;20124;-60
2022/09/29 00:13:42;;;;;;;4.00;3.60;;;10.80;86.40;;;;;;5016790;28;20043;-60
2022/09/29 00:16:08;;;;;;;3.85;3.47;;;10.80;86.40;;;;;;5015672;28;20038;-61
2022/09/29 00:18:34;;;;;;;3.70;3.42;;;10.80;86.40;;;;;;5014321;28;20440;-60
2022/09/29 00:21:00;;;;;;;3.90;3.55;;;10.80;86.50;;;;;;5015904;28;20041;-59
2022/09/29 00:23:26;;;;;;;3.70;3.40;;;10.80;86.50;;;;;;5015258;28;20052;-59
2022/09/29 00:26:00;;;;;;;4.00;3.70;;;10.80;86.60;;;;;;5015614;28;20038;-60
2022/09/29 00:28:26;;;;;;;4.00;3.70;;;10.90;86.80;;;;;;5014634;28;20137;-61
2022/09/29 00:30:51;;;;;;;4.28;3.90;;;10.90;86.70;;;;;;5016580;28;20523;-61
2022/09/29 00:33:17;;;;;;;4.35;3.97;;;10.90;86.60;;;;;;5015801;28;20041;-61
2022/09/29 00:35:42;;;;;;;5.63;3.97;;;10.90;86.60;;;;;;5015804;28;20045;-61
2022/09/29 00:38:08;;;;;;;4.22;3.83;;;10.90;86.60;;;;;;5015164;28;20050;-62
2022/09/29 00:40:33;;;;;;;4.68;3.90;;;11.00;86.60;;;;;;5016451;28;20464;-61
2022/09/29 00:42:59;;;;;;;4.13;3.83;;;11.00;86.60;;;;;;5015210;28;20037;-61
2022/09/29 00:45:25;;;;;;;4.20;3.80;;;11.00;86.50;;;;;;5014219;28;20033;-61
2022/09/29 00:48:11;;;;;;;4.88;3.78;;;11.00;86.40;;;;;;5008556;28;20037;-61
2022/09/29 00:50:47;;;;;;;4.40;3.95;;;11.00;86.50;;;;;;5016021;28;20041;-61
2022/09/29 00:53:15;;;;;;;5.30;4.00;;;11.00;86.40;;;;;;4999847;28;20736;-61
2022/09/29 00:56:09;;;;;;;4.28;3.95;;;11.10;86.30;;;;;;5016597;28;20129;-62
2022/09/29 00:58:39;;;;;;;4.53;4.10;;;11.00;86.30;;;;;;5009857;28;20146;-60
2022/09/29 01:01:05;;;;;;;4.30;4.00;;;11.00;86.30;;;;;;5020161;28;20021;-60
2022/09/29 01:03:37;;;;;;;4.70;4.30;;;11.00;86.20;;;;;;5016092;28;20473;-62
2022/09/29 01:06:11;;;;;;;4.20;3.78;;;11.10;86.30;;;;;;5013992;28;20045;-60
2022/09/29 01:08:56;;;;;;;3.90;3.60;;;11.10;86.40;;;;;;5013585;28;20512;-60
2022/09/29 01:11:22;;;;;;;4.50;4.10;;;11.10;86.40;;;;;;5014178;28;20095;-60
2022/09/29 01:13:48;;;;;;;4.53;4.13;;;11.10;86.20;;;;;;5014063;28;20037;-60
2022/09/29 01:16:14;;;;;;;4.68;4.28;;;11.10;86.20;;;;;;5014990;28;20061;-61
2022/09/29 01:18:41;;;;;;;4.35;3.97;;;11.10;86.20;;;;;;5014991;28;20170;-62
2022/09/29 01:21:29;;;;;;;4.75;3.88;;;11.10;86.20;;;;;;5012924;28;20407;-61
2022/09/29 01:23:58;;;;;;;4.18;3.78;;;11.10;86.40;;;;;;5016035;28;20084;-59
2022/09/29 01:26:44;;;;;;;3.90;3.60;;;11.10;86.20;;;;;;5015983;28;20045;-62
2022/09/29 01:29:46;;;;;;;4.45;4.05;;;11.20;86.10;;;;;;5016126;28;20057;-57
2022/09/29 01:32:44;;;;;;;4.35;3.95;;;11.20;86.20;;;;;;5015427;28;20504;-61
2022/09/29 01:35:21;;;;;;;3.92;3.60;;;11.20;85.90;;;;;;4992878;28;20064;-59
2022/09/29 01:38:31;;;;;;;4.60;3.97;;;11.10;85.80;;;;;;5015612;28;20516;-59
2022/09/29 01:41:13;;;;;;;3.92;3.63;;;11.10;85.90;;;;;;5014088;28;20050;-61
2022/09/29 01:43:46;;;;;;;4.28;3.88;;;11.10;85.70;;;;;;5014347;28;20037;-60
2022/09/29 01:46:27;;;;;;;5.45;3.60;;;11.10;85.90;;;;;;5013302;28;20061;-60
2022/09/29 01:48:55;;;;;;;4.10;3.70;;;11.10;85.80;;;;;;5014020;28;20045;-60
2022/09/29 01:51:49;;;;;;;3.88;3.58;;;11.10;85.70;;;;;;5015215;28;20030;-61
2022/09/29 01:54:20;;;;;;;4.00;3.60;;;11.10;85.90;;;;;;5001255;28;20056;-59
2022/09/29 01:57:16;;;;;;;3.90;3.60;;;11.00;85.70;;;;;;5014060;28;20041;-61
2022/09/29 01:59:48;;;;;;;3.88;3.58;;;11.00;85.70;;;;;;5011549;28;20045;-59
2022/09/29 02:02:29;;;;;;;4.28;3.90;;;11.00;85.70;;;;;;5013885;28;20109;-60
2022/09/29 02:05:00;;;;;;;4.18;3.78;;;11.00;86.70;;;;;;5015589;28;20180;-59
2022/09/29 02:07:31;;;;;;;3.88;3.58;;;11.00;85.80;;;;;;5014922;28;20076;-60
2022/09/29 02:10:04;;;;;;;4.07;3.75;;;11.00;85.70;;;;;;5012379;28;20068;-61
2022/09/29 02:12:33;;;;;;;4.00;3.70;;;11.00;85.70;;;;;;5014117;28;20041;-62
2022/09/29 02:15:02;;;;;;;4.05;3.65;;;11.00;85.50;;;;;;5015521;28;20036;-60
2022/09/29 02:17:34;;;;;;;3.70;3.40;;;11.00;85.60;;;;;;5014301;28;20057;-61
2022/09/29 02:20:00;;;;;;;3.95;3.65;;;11.00;85.70;;;;;;5013678;28;20413;-59
2022/09/29 02:22:25;;;;;;;4.18;3.88;;;11.00;85.50;;;;;;5014230;28;20042;-60
2022/09/29 02:24:57;;;;;;;4.15;3.80;;;11.00;85.40;;;;;;5015652;28;20111;-60
2022/09/29 02:27:25;;;;;;;3.70;3.40;;;11.00;85.40;;;;;;5016164;28;20105;-60
2022/09/29 02:29:51;;;;;;;4.43;4.03;;;11.00;85.30;;;;;;5015816;28;20037;-60
2022/09/29 02:32:18;;;;;;;3.70;3.40;;;11.00;85.40;;;;;;5016352;28;20040;-59
2022/09/29 02:34:47;;;;;;;4.22;3.83;;;11.00;85.40;;;;;;5015861;28;20038;-60
2022/09/29 02:37:39;;;;;;;4.38;3.97;;;11.00;85.40;;;;;;5013069;28;20117;-60
2022/09/29 02:40:11;;;;;;;4.70;4.30;;;11.00;85.40;;;;;;5012943;28;20045;-60
2022/09/29 02:42:43;;;;;;;4.72;4.25;;;11.00;85.20;;;;;;5013652;28;20579;-60
2022/09/29 02:45:46;;;;;;;4.75;4.35;;;11.00;85.10;;;;;;5013452;28;20060;-60
2022/09/29 02:48:20;;;;;;;4.05;3.60;;;11.00;85.30;;;;;;5015853;28;20438;-60
2022/09/29 02:51:12;;;;;;;5.35;4.30;;;11.00;85.20;;;;;;5013002;28;20397;-59
2022/09/29 02:54:08;;;;;;;4.53;4.13;;;11.00;85.60;;;;;;5014153;28;20420;-60
2022/09/29 02:56:53;;;;;;;3.88;3.58;;;11.00;85.90;;;;;;5015620;28;20037;-59
2022/09/29 02:59:34;;;;;;;4.35;3.95;;;11.00;85.90;;;;;;5013727;28;20497;-61
2022/09/29 03:01:59;;;;;;;4.03;3.72;;;11.00;86.90;;;;;;5014564;28;20037;-61
2022/09/29 03:04:26;;;;;;;4.10;3.67;;;11.00;85.70;;;;;;5011345;28;20038;-60
2022/09/29 03:06:52;;;;;;;4.30;3.45;;;11.00;85.70;;;;;;5013812;28;20092;-60
2022/09/29 03:09:19;;;;;;;5.45;4.05;;;10.90;85.90;;;;;;5014036;28;20033;-61
2022/09/29 03:11:44;;;;;;;4.10;3.70;;;11.00;86.10;;;;;;5013233;28;20095;-60
2022/09/29 03:14:10;;;;;;;4.00;3.60;;;11.00;86.00;;;;;;5013729;28;20038;-60
2022/09/29 03:16:36;;;;;;;4.32;3.92;;;11.00;86.00;;;;;;5014434;28;20034;-60
2022/09/29 03:19:04;;;;;;;4.18;3.78;;;11.00;86.20;;;;;;5013573;28;20646;-60
2022/09/29 03:21:30;;;;;;;4.32;3.92;;;11.00;86.30;;;;;;5014839;28;20045;-61
2022/09/29 03:23:55;;;;;;;5.60;4.10;;;11.00;86.20;;;;;;5011924;28;20037;-62
2022/09/29 03:26:22;;;;;;;4.07;3.78;;;11.00;86.30;;;;;;5015279;28;20030;-60
2022/09/29 03:28:49;;;;;;;4.45;4.00;;;11.10;86.30;;;;;;5012964;28;20037;-59
2022/09/29 03:31:14;;;;;;;4.47;4.07;;;11.10;86.30;;;;;;5017738;28;20588;-60
2022/09/29 03:33:40;;;;;;;4.72;4.28;;;11.10;86.20;;;;;;5019760;28;20029;-60
2022/09/29 03:36:07;;;;;;;4.55;4.15;;;11.10;86.10;;;;;;5016555;28;20133;-61
2022/09/29 03:38:34;;;;;;;4.25;3.88;;;11.10;86.00;;;;;;5018618;28;20504;-61
2022/09/29 03:40:59;;;;;;;4.18;3.78;;;11.10;86.00;;;;;;5016129;28;20460;-61
2022/09/29 03:43:25;;;;;;;4.50;4.10;;;11.20;86.00;;;;;;5017612;28;20026;-61
2022/09/29 03:45:53;;;;;;;6.80;4.60;;;11.20;86.00;;;;;;5017939;28;20037;-61
2022/09/29 03:48:20;;;;;;;5.20;4.70;;;11.20;85.90;;;;;;5017663;28;20129;-61
2022/09/29 03:50:46;;;;;;;5.18;4.68;;;11.30;86.00;;;;;;5015603;28;20461;-60
2022/09/29 03:53:13;;;;;;;7.97;6.60;;;11.30;86.00;;;;;;5018398;28;20030;-60
2022/09/29 03:55:39;;;;;;;9.45;6.50;;;11.20;85.90;;;;;;5017002;28;20559;-60
2022/09/29 03:58:04;;;;;;;6.40;5.80;;;11.30;85.90;;;;;;5015104;28;20025;-61
2022/09/29 04:00:30;;;;;;;6.55;5.88;;;11.30;85.70;;;;;;5018221;28;20045;-61
2022/09/29 04:02:57;;;;;;;6.18;5.32;;;11.30;85.50;;;;;;5018080;28;20033;-58
2022/09/29 04:05:23;;;;;;;5.78;5.18;;;11.20;85.20;;;;;;5016295;28;20044;-58
2022/09/29 04:07:48;;;;;;;5.88;5.00;;;11.20;85.10;;;;;;5018403;28;20034;-61
2022/09/29 04:10:14;;;;;;;5.65;5.15;;;11.20;85.10;;;;;;5015380;28;20108;-61
2022/09/29 04:12:40;;;;;;;5.15;4.65;;;11.20;85.20;;;;;;5015956;28;20113;-61
2022/09/29 04:15:06;;;;;;;6.10;4.50;;;11.10;85.30;;;;;;5014860;28;20266;-60
2022/09/29 04:17:32;;;;;;;4.88;4.38;;;11.10;85.50;;;;;;5016045;28;20025;-61
2022/09/29 04:19:57;;;;;;;4.53;4.13;;;11.10;85.60;;;;;;5017666;28;20037;-60
2022/09/29 04:22:23;;;;;;;3.58;3.28;;;11.10;85.70;;;;;;5014743;28;20365;-61
2022/09/29 04:24:49;;;;;;;5.50;4.07;;;11.10;85.60;;;;;;5015757;28;20375;-62
2022/09/29 04:27:15;;;;;;;4.40;3.97;;;11.10;85.50;;;;;;5010599;28;20332;-61
2022/09/29 04:29:41;;;;;;;4.85;4.45;;;11.10;85.70;;;;;;5004392;28;20049;-60
2022/09/29 04:32:07;;;;;;;6.03;4.57;;;11.10;85.50;;;;;;5012612;28;20464;-60
2022/09/29 04:34:33;;;;;;;4.32;3.92;;;11.10;85.50;;;;;;5011837;28;20045;-61
2022/09/29 04:36:59;;;;;;;5.25;4.47;;;11.10;85.50;;;;;;5010852;28;20519;-60
2022/09/29 04:39:25;;;;;;;4.57;4.07;;;11.10;85.60;;;;;;5015789;28;20048;-61
2022/09/29 04:41:51;;;;;;;4.65;4.15;;;11.10;85.50;;;;;;5008747;28;20084;-60
2022/09/29 04:44:19;;;;;;;4.90;4.40;;;11.10;85.50;;;;;;5012399;28;20068;-60
2022/09/29 04:46:44;;;;;;;4.68;4.18;;;11.10;85.50;;;;;;5012813;28;20417;-61
2022/09/29 04:49:10;;;;;;;4.85;4.35;;;11.00;85.60;;;;;;5014440;28;20423;-60
2022/09/29 04:51:36;;;;;;;5.03;4.53;;;11.00;85.70;;;;;;5014111;28;20064;-62
2022/09/29 04:54:01;;;;;;;4.70;4.20;;;11.10;85.70;;;;;;5016881;28;20500;-61
2022/09/29 04:56:30;;;;;;;4.30;3.90;;;11.10;85.80;;;;;;5014678;28;20048;-61
2022/09/29 04:58:59;;;;;;;4.90;4.38;;;11.00;85.80;;;;;;5014950;28;20041;-62
2022/09/29 05:01:25;;;;;;;5.20;4.70;;;11.00;85.80;;;;;;5015066;28;20066;-61
2022/09/29 05:03:51;;;;;;;5.30;4.80;;;11.10;85.90;;;;;;5014949;28;20033;-62
2022/09/29 05:06:17;;;;;;;6.10;5.60;;;11.10;85.80;;;;;;5016528;28;20076;-59
2022/09/29 05:08:42;;;;;;;6.90;6.30;;;11.10;85.60;;;;;;5016918;28;20037;-62
2022/09/29 05:11:09;;;;;;;7.35;6.65;;;11.10;85.40;;;;;;5015434;28;20120;-62
2022/09/29 05:13:36;;;;;;;6.93;6.22;;;11.10;85.30;;;;;;5015986;28;20040;-61
2022/09/29 05:16:02;;;;;;;5.68;5.13;;;11.10;85.30;;;;;;5013744;28;20037;-61
2022/09/29 05:18:29;;;;;;;5.95;5.35;;;11.10;85.50;;;;;;5014639;28;20041;-61
2022/09/29 05:20:55;;;;;;;5.85;5.13;;;11.10;85.50;;;;;;5011540;28;20033;-61
2022/09/29 05:23:20;;;;;;;5.95;4.38;;;11.10;85.50;;;;;;5015074;28;20034;-61
2022/09/29 05:25:46;;;;;;;4.75;4.30;;;11.10;85.50;;;;;;5015588;28;20056;-61
2022/09/29 05:28:14;;;;;;;4.55;4.15;;;11.10;85.50;;;;;;5011321;28;20041;-61
2022/09/29 05:30:40;;;;;;;5.53;4.50;;;11.20;85.60;;;;;;5014814;28;20161;-61
2022/09/29 05:33:06;;;;;;;4.65;4.07;;;11.10;85.50;;;;;;5012175;28;20058;-60
2022/09/29 05:35:31;;;;;;;4.68;4.20;;;11.10;85.40;;;;;;5014443;28;20034;-60
2022/09/29 05:37:57;;;;;;;4.38;3.97;;;11.20;85.40;;;;;;5014910;28;20032;-60
2022/09/29 05:40:23;;;;;;;5.20;4.30;;;11.20;85.30;;;;;;5013260;28;20049;-60
2022/09/29 05:42:50;;;;;;;4.75;4.35;;;11.10;85.20;;;;;;5011693;28;20389;-59
2022/09/29 05:45:15;;;;;;;4.10;3.80;;;11.10;85.30;;;;;;5013524;28;20030;-62
2022/09/29 05:47:42;;;;;;;4.07;3.78;;;11.10;85.30;;;;;;5013726;28;20615;-59
2022/09/29 05:50:09;;;;;;;5.03;4.47;;;11.10;85.70;;;;;;5014729;28;20345;-60
2022/09/29 05:52:34;;;;;;;6.03;4.50;;;11.10;85.80;;;;;;5012495;28;20080;-60
2022/09/29 05:55:00;;;;;;;5.05;4.25;;;11.10;85.90;;;;;;5016450;28;20072;-61
2022/09/29 05:57:25;;;;;;;4.40;4.00;;;11.20;86.00;;;;;;5012671;28;20029;-60
2022/09/29 05:59:51;;;;;;;4.88;4.05;;;11.20;86.00;;;;;;5015107;28;20057;-60
2022/09/29 06:02:17;;;;;;;3.72;3.42;;;11.20;85.90;;;;;;5012325;28;20096;-61
2022/09/29 06:04:43;;;;;;;3.55;3.25;;;11.20;85.50;;;;;;5014681;28;20493;-60
2022/09/29 06:07:08;;;;;;;3.60;3.30;;;11.20;85.20;;;;;;5015252;28;20049;-59
2022/09/29 06:09:37;;;;;;;3.65;3.20;;;11.20;85.00;;;;;;5012253;28;20041;-61
2022/09/29 06:12:03;;;;;;;3.88;3.42;;;11.20;84.90;;;;;;5014798;28;20072;-60
2022/09/29 06:14:28;;;;;;;3.63;3.33;;;11.10;84.90;;;;;;5012784;28;20049;-61
2022/09/29 06:16:54;;;;;;;3.55;3.25;;;11.10;85.10;;;;;;5015162;28;20170;-61
2022/09/29 06:19:20;;;;;;;3.63;3.22;;;11.00;85.30;;;;;;5013946;28;20041;-60
2022/09/29 06:21:45;;;;;;;3.33;3.03;;;11.00;85.70;;;;;;5012433;28;20520;-61
2022/09/29 06:24:11;;;;;;;4.38;3.50;;;11.00;85.90;;;;;;5016086;28;20046;-60
2022/09/29 06:26:37;;;;;;;3.25;2.95;;;11.00;85.80;;;;;;5015244;28;20094;-62
2022/09/29 06:29:03;;;;;;;3.75;3.25;;;11.00;85.90;;;;;;5012352;28;20045;-60
2022/09/29 06:31:30;;;;;;;3.67;3.38;;;11.00;86.10;;;;;;5012773;28;20064;-61
2022/09/29 06:33:58;;;;;;;3.60;3.30;;;11.00;86.20;;;;;;5013067;28;20036;-63
2022/09/29 06:39:13;;;;;;;3.50;3.03;;;11.00;86.30;;;;;;5016032;28;20063;-60
2022/09/29 06:41:40;;;;;;;3.85;3.35;;;11.10;86.00;;;;;;5014763;28;20345;-62
2022/09/29 06:44:06;;;;;;;3.60;3.30;;;11.00;85.80;;;;;;5016708;28;20038;-62
2022/09/29 06:46:33;;;;;;;4.53;3.30;;;11.10;85.80;;;;;;5012910;28;20408;-62
2022/09/29 06:48:58;;;;;;;3.50;3.20;;;11.10;86.10;;;;;;5013961;28;20092;-62
2022/09/29 06:51:24;;;;;;;3.50;3.20;;;11.20;86.40;;;;;;5014174;28;20141;-60
2022/09/29 06:53:50;;;;;;;4.13;3.40;;;11.20;86.50;;;;;;5015377;28;20038;-61
2022/09/29 06:56:17;;;;;;;4.05;3.50;;;11.20;86.60;;;;;;5014122;28;20041;-62
2022/09/29 06:58:44;;;;;;;5.57;3.60;;;11.30;86.60;;;;;;5012300;28;20042;-61
2022/09/29 07:01:11;;;;;;;4.15;3.50;;;11.30;86.50;;;;;;5013175;28;20087;-61
2022/09/29 07:03:37;;;;;;;4.47;3.35;;;11.40;86.40;;;;;;5013164;28;20050;-63
2022/09/29 07:06:08;;;;;;;4.20;3.80;;;11.40;86.10;;;;;;5016267;28;20080;-61
2022/09/29 07:08:35;;;;;;;3.85;3.50;;;11.40;86.00;;;;;;5018948;28;20041;-62
2022/09/29 07:11:02;;;;;;;4.10;3.38;;;11.50;86.00;;;;;;5017580;28;20080;-62
2022/09/29 07:13:28;;;;;;;6.05;3.28;;;11.50;85.90;;;;;;5017366;28;20120;-63
2022/09/29 07:15:53;;;;;;;3.70;3.40;;;11.50;85.90;;;;;;5014619;28;20444;-62
2022/09/29 07:18:19;;;;;;;4.30;3.50;;;11.50;86.00;;;;;;5015771;28;20485;-61
2022/09/29 07:20:45;;;;;;;4.15;3.60;;;11.60;86.00;;;;;;5017880;28;20038;-62
2022/09/29 07:23:11;;;;;;;4.40;4.00;;;11.60;85.90;;;;;;5017959;28;20049;-61
2022/09/29 07:25:36;;;;;;;4.25;3.90;;;11.70;85.90;;;;;;5017800;28;20572;-62
2022/09/29 07:28:02;;;;;;;5.07;4.40;;;11.60;85.50;;;;;;5017376;28;20124;-61
2022/09/29 07:30:27;;;;;;;5.07;4.57;;;11.60;85.00;;;;;;5014315;28;20041;-62
2022/09/29 07:32:56;;;;;;;5.00;4.50;;;11.60;85.20;;;;;;5014236;28;20038;-62
2022/09/29 07:35:22;;;;;;;6.03;4.45;;;11.60;86.20;;;;;;5016639;28;20030;-62
2022/09/29 07:37:52;;;;;;;5.40;4.40;;;11.60;85.70;;;;;;5016761;28;20083;-62
2022/09/29 07:40:20;;;;;;;4.90;4.45;;;11.60;86.00;;;;;;5017686;28;20041;-62
2022/09/29 07:42:46;;;;;;;4.95;4.40;;;11.60;86.20;;;;;;5017969;28;20349;-61
2022/09/29 07:45:12;;;;;;;4.00;3.70;;;11.70;86.30;;;;;;5016109;28;20078;-61
2022/09/29 07:47:37;;;;;;;6.03;3.80;;;11.70;86.20;;;;;;5016744;28;20493;-62
2022/09/29 07:50:03;;;;;;;4.00;3.70;;;11.80;86.00;;;;;;5017800;28;20041;-60
2022/09/29 07:52:29;;;;;;;3.15;2.90;;;11.80;86.00;;;;;;5016559;28;20041;-62
2022/09/29 07:54:54;;;;;;;4.50;3.60;;;11.90;86.00;;;;;;5016017;28;20428;-60
2022/09/29 07:57:20;;;;;;;3.78;3.40;;;11.90;85.60;;;;;;5018168;28;20199;-62
2022/09/29 07:59:45;;;;;;;3.15;2.90;;;11.90;85.50;;;;;;5014936;28;20045;-62
2022/09/29 08:02:11;;;;;;;3.42;3.13;;;11.90;84.60;;;;;;5011656;28;20513;-62
2022/09/29 08:04:37;;;;;;;3.95;3.05;;;11.90;84.50;;;;;;5017610;28;20033;-61
2022/09/29 08:07:03;;;;;;;3.47;3.17;;;11.80;84.90;;;;;;5017742;28;20378;-60
2022/09/29 08:09:28;;;;;;;3.00;2.80;;;11.80;85.40;;;;;;5019022;28;20527;-62
2022/09/29 08:11:54;;;;;;;3.15;2.95;;;11.90;85.70;;;;;;5010856;28;20500;-61
2022/09/29 08:14:19;;;;;;;2.55;2.35;;;11.90;85.90;;;;;;5016986;28;20048;-62
2022/09/29 08:16:45;;;;;;;2.65;2.45;;;12.00;85.70;;;;;;5016074;28;20121;-61
2022/09/29 08:19:11;;;;;;;2.05;1.95;;;12.00;85.50;;;;;;5018180;28;20735;-62
2022/09/29 08:21:37;;;;;;;2.35;2.15;;;12.10;85.30;;;;;;5017197;28;20041;-60
2022/09/29 08:24:04;;;;;;;1.90;1.80;;;12.10;85.10;;;;;;5018716;28;20041;-61
2022/09/29 08:26:34;;;;;;;1.83;1.73;;;12.20;85.00;;;;;;5016826;28;20527;-62
2022/09/29 08:29:01;;;;;;;1.25;1.10;;;12.30;84.90;;;;;;5017258;28;20459;-61
2022/09/29 08:31:27;;;;;;;1.33;1.23;;;12.30;84.60;;;;;;5014171;28;20045;-60
2022/09/29 08:33:56;;;;;;;1.50;1.40;;;12.40;84.30;;;;;;5016246;28;20087;-61
2022/09/29 08:36:22;;;;;;;1.45;1.35;;;12.40;83.80;;;;;;5016711;28;20033;-60
2022/09/29 08:38:50;;;;;;;1.40;1.30;;;12.50;83.60;;;;;;5016789;28;20520;-62
2022/09/29 08:41:48;;;;;;;1.38;1.27;;;12.50;83.40;;;;;;5017359;28;20042;-60
2022/09/29 08:44:13;;;;;;;1.52;1.40;;;12.60;82.50;;;;;;5017356;28;20037;-62
2022/09/29 08:46:47;;;;;;;1.27;1.00;;;12.60;83.10;;;;;;5015844;28;20045;-61
2022/09/29 08:49:35;;;;;;;0.55;0.55;;;12.60;82.90;;;;;;5018167;28;20061;-61
2022/09/29 08:52:11;;;;;;;1.02;0.73;;;12.60;82.30;;;;;;5016617;28;20037;-59
2022/09/29 08:54:40;;;;;;;1.05;0.90;;;12.70;82.70;;;;;;5014949;28;20559;-62
2022/09/29 08:57:16;;;;;;;1.40;1.10;;;12.70;82.70;;;;;;5017889;28;20045;-60
2022/09/29 08:59:42;;;;;;;1.20;1.10;;;12.80;82.40;;;;;;5016321;28;20057;-59
2022/09/29 09:02:50;;;;;;;2.38;1.15;;;12.80;82.40;;;;;;5017393;28;20413;-61
2022/09/29 09:05:44;;;;;;;1.30;1.10;;;12.80;80.90;;;;;;5016555;28;20033;-61
2022/09/29 09:08:15;;;;;;;1.40;1.25;;;12.90;81.30;;;;;;5012801;28;20037;-59
2022/09/29 09:11:23;;;;;;;2.47;1.48;;;12.90;81.50;;;;;;5013894;28;20056;-61
2022/09/29 09:14:03;;;;;;;1.73;1.15;;;12.90;81.30;;;;;;5017914;28;20040;-62
2022/09/29 09:16:57;;;;;;;1.00;1.00;;;12.90;81.20;;;;;;5017219;28;20037;-61
2022/09/29 09:19:34;;;;;;;3.55;1.23;;;13.00;81.20;;;;;;5018460;28;20053;-61
2022/09/29 09:22:24;;;;;;;1.45;1.30;;;13.00;81.30;;;;;;5016599;28;20523;-60
2022/09/29 09:25:00;;;;;;;1.30;1.20;;;13.00;81.00;;;;;;5019098;28;20037;-61
2022/09/29 09:27:36;;;;;;;1.77;1.58;;;13.00;81.10;;;;;;5018308;28;20583;-60
2022/09/29 09:30:12;;;;;;;1.27;1.13;;;13.00;81.30;;;;;;5014679;28;20041;-61
2022/09/29 09:32:48;;;;;;;1.23;1.13;;;13.00;81.50;;;;;;5015322;28;20037;-62
2022/09/29 09:35:26;;;;;;;1.42;1.23;;;13.10;81.40;;;;;;5018081;28;20261;-61
2022/09/29 09:37:54;;;;;;;1.02;0.90;;;13.00;81.10;;;;;;5015817;28;20140;-60
2022/09/29 09:40:24;;;;;;;1.10;1.10;;;13.10;81.30;;;;;;5017375;28;20042;-62
2022/09/29 09:42:59;;;;;;;2.45;1.40;;;13.10;81.00;;;;;;5015546;28;20025;-62
2022/09/29 09:45:57;;;;;;;1.77;1.48;;;13.10;80.80;;;;;;5016499;28;20430;-62
2022/09/29 09:48:37;;;;;;;1.50;1.40;;;13.20;80.20;;;;;;4966117;28;20034;-62
2022/09/29 09:51:43;;;;;;;1.55;1.42;;;13.20;80.50;;;;;;5017343;28;20038;-62
2022/09/29 09:54:14;;;;;;;2.15;1.15;;;13.20;80.30;;;;;;5014936;28;20037;-60
2022/09/29 09:57:17;;;;;;;1.40;1.25;;;13.30;80.80;;;;;;5016618;28;20049;-61
2022/09/29 10:00:07;;;;;;;1.40;1.30;;;13.30;80.30;;;;;;5017108;28;21035;-62
2022/09/29 10:02:33;;;;;;;2.00;1.80;;;13.40;80.80;;;;;;5015845;28;20037;-62
2022/09/29 10:04:59;;;;;;;1.95;1.50;;;13.40;80.90;;;;;;5016800;28;20398;-60
2022/09/29 10:07:28;;;;;;;1.40;1.30;;;13.50;81.70;;;;;;5018006;28;20037;-60
2022/09/29 10:09:55;;;;;;;1.48;1.38;;;13.50;80.70;;;;;;5017928;28;20041;-61
2022/09/29 10:12:23;;;;;;;1.40;1.30;;;13.60;80.80;;;;;;5014449;28;20508;-60
2022/09/29 10:15:05;;;;;;;1.27;1.17;;;13.60;80.80;;;;;;5013373;28;20124;-61
2022/09/29 10:17:41;;;;;;;1.30;1.20;;;13.70;80.50;;;;;;5015690;28;20132;-61
2022/09/29 10:20:08;;;;;;;3.75;1.20;;;13.70;79.90;;;;;;5015274;28;20492;-61
2022/09/29 10:22:34;;;;;;;1.85;1.20;;;13.80;80.00;;;;;;5017689;28;20042;-61
2022/09/29 10:25:17;;;;;;;1.33;1.23;;;13.80;79.30;;;;;;5016743;28;20030;-61
2022/09/29 10:27:48;;;;;;;1.60;1.40;;;13.80;78.90;;;;;;5016424;28;20210;-62
2022/09/29 10:30:20;;;;;;;1.83;1.40;;;13.90;79.30;;;;;;5016618;28;20061;-61
2022/09/29 10:32:46;;;;;;;2.38;1.90;;;13.90;79.00;;;;;;5015126;28;20037;-61
2022/09/29 10:35:18;;;;;;;3.13;1.70;;;14.00;79.00;;;;;;5015540;28;20037;-61
2022/09/29 10:37:50;;;;;;;1.65;1.40;;;14.00;78.60;;;;;;5015755;28;20124;-62
2022/09/29 10:40:21;;;;;;;1.00;0.90;;;14.10;78.70;;;;;;5016777;28;20050;-62
2022/09/29 10:42:49;;;;;;;1.27;1.13;;;14.10;78.50;;;;;;5016010;28;20045;-61
2022/09/29 10:45:26;;;;;;;1.52;1.05;;;14.10;78.20;;;;;;5017146;28;20078;-61
2022/09/29 10:47:57;;;;;;;1.17;0.95;;;14.20;77.80;;;;;;5018497;28;20061;-59
2022/09/29 10:50:36;;;;;;;2.50;1.00;;;14.20;76.60;;;;;;5019336;28;20039;-62
2022/09/29 10:53:26;;;;;;;1.15;1.00;;;14.20;76.60;;;;;;5016226;28;20039;-63
2022/09/29 10:55:55;;;;;;;2.05;1.42;;;14.20;76.60;;;;;;5014984;28;20033;-61
2022/09/29 10:58:34;;;;;;;2.92;0.80;;;14.20;76.50;;;;;;5017348;28;20112;-62
2022/09/29 11:01:09;;;;;;;0.82;0.80;;;14.30;76.20;;;;;;5016498;28;20045;-62
2022/09/29 11:03:39;;;;;;;2.30;1.00;;;14.30;76.50;;;;;;5018403;28;20531;-62
2022/09/29 11:06:11;;;;;;;1.10;0.90;;;14.30;76.50;;;;;;5015019;28;21395;-60
2022/09/29 11:08:57;;;;;;;0.95;0.80;;;14.40;76.30;;;;;;5015989;28;20044;-57
2022/09/29 11:11:36;;;;;;;2.67;1.02;;;14.40;75.10;;;;;;5020541;28;20029;-62
2022/09/29 11:14:02;;;;;;;2.03;0.80;;;14.40;75.90;;;;;;5017368;28;20583;-62
2022/09/29 11:16:33;;;;;;;1.83;0.90;;;14.40;76.60;;;;;;5019510;28;20037;-62
2022/09/29 11:19:08;;;;;;;1.75;1.00;;;14.40;76.70;;;;;;5018988;28;20046;-63
2022/09/29 11:21:53;;;;;;;1.17;0.85;;;14.50;76.00;;;;;;5018643;28;20045;-62
2022/09/29 11:24:27;;;;;;;1.20;0.90;;;14.50;74.40;;;;;;5018957;28;20116;-62
2022/09/29 11:27:14;;;;;;;1.17;0.57;;;14.50;74.20;;;;;;5018596;28;20034;-60
2022/09/29 11:30:01;;;;;;;1.67;1.30;;;14.50;73.80;;;;;;5015751;28;20055;-60
2022/09/29 11:32:37;;;;;;;1.00;0.90;;;14.60;74.80;;;;;;5017306;28;20249;-61
2022/09/29 11:35:15;;;;;;;0.98;0.88;;;14.60;74.80;;;;;;5018341;28;20528;-62
2022/09/29 11:37:46;;;;;;;0.73;0.70;;;14.60;75.60;;;;;;5016471;28;20103;-60
2022/09/29 11:40:19;;;;;;;3.10;0.80;;;14.60;75.20;;;;;;5017695;28;20521;-62
2022/09/29 11:42:55;;;;;;;1.67;0.90;;;14.60;74.90;;;;;;5017522;28;20033;-62
2022/09/29 11:45:30;;;;;;;0.77;0.68;;;14.70;75.30;;;;;;5017655;28;20273;-63
2022/09/29 11:48:10;;;;;;;1.10;0.70;;;14.70;74.90;;;;;;5014298;28;20211;-61
2022/09/29 11:50:54;;;;;;;3.47;0.90;;;14.80;75.10;;;;;;5017086;28;20037;-62
2022/09/29 11:53:39;;;;;;;1.83;0.60;;;14.80;74.20;;;;;;5017943;28;20120;-62
2022/09/29 11:56:23;;;;;;;1.95;0.70;;;14.80;73.40;;;;;;5018996;28;20532;-62
2022/09/29 11:58:54;;;;;;;0.88;0.60;;;14.90;72.70;;;;;;5017436;28;20120;-61
2022/09/29 12:01:52;;;;;;;1.02;0.50;;;14.90;73.70;;;;;;5015116;28;20064;-62
2022/09/29 12:04:47;;;;;;;0.80;0.52;;;14.90;72.20;;;;;;5017598;28;20068;-62
2022/09/29 12:07:32;;;;;;;1.52;0.70;;;14.90;73.20;;;;;;5018819;28;20374;-62
2022/09/29 12:10:07;;;;;;;1.00;0.70;;;15.00;72.70;;;;;;5014800;28;20156;-62
2022/09/29 12:12:57;;;;;;;1.02;0.82;;;15.00;72.80;;;;;;5014461;28;20029;-62
2022/09/29 12:15:28;;;;;;;1.00;0.88;;;15.00;72.30;;;;;;5017692;28;20047;-62
2022/09/29 12:18:03;;;;;;;1.17;0.60;;;15.10;73.20;;;;;;5016983;28;20038;-61
2022/09/29 12:20:34;;;;;;;2.95;1.20;;;15.10;71.50;;;;;;5015845;28;20148;-61
2022/09/29 12:23:04;;;;;;;1.67;1.17;;;15.10;72.10;;;;;;5017041;28;20049;-62
2022/09/29 12:25:34;;;;;;;1.38;0.98;;;15.10;72.10;;;;;;5017337;28;20121;-62
2022/09/29 12:28:06;;;;;;;1.58;0.70;;;15.10;72.50;;;;;;5018748;28;20061;-60
2022/09/29 12:30:45;;;;;;;0.88;0.60;;;15.20;72.60;;;;;;5016902;28;20041;-60
2022/09/29 12:33:23;;;;;;;1.25;0.70;;;15.20;72.10;;;;;;5016759;28;20037;-62
2022/09/29 12:36:42;;;;;;;1.52;1.15;;;15.30;71.70;;;;;;5015193;28;20026;-61
2022/09/29 12:38:59;;;;;;;2.40;0.90;;;15.30;71.20;;;;;;5016165;28;20400;-63
2022/09/29 12:41:29;;;;;;;4.70;0.80;;;15.30;71.80;;;;;;5019392;28;20523;-61
2022/09/29 12:44:24;;;;;;;0.70;0.60;;;15.40;71.80;;;;;;5015917;28;20041;-62
2022/09/29 12:46:59;;;;;;;1.02;0.40;;;15.40;71.30;;;;;;5017531;28;20412;-63
2022/09/29 12:49:54;;;;;;;0.95;0.40;;;15.40;71.00;;;;;;5017438;28;20098;-62
2022/09/29 12:52:28;;;;;;;1.48;0.50;;;15.40;69.90;;;;;;5014845;28;20674;-61
2022/09/29 12:55:00;;;;;;;0.73;0.60;;;15.50;71.00;;;;;;5014780;28;20409;-61
2022/09/29 12:57:48;;;;;;;1.15;0.40;;;15.40;70.70;;;;;;5013867;28;20042;-62
2022/09/29 13:00:17;;;;;;;0.85;0.50;;;15.50;69.80;;;;;;5017613;28;20132;-62
2022/09/29 13:03:13;;;;;;;0.52;0.50;;;15.40;70.40;;;;;;5012924;28;20434;-63
2022/09/29 13:05:54;;;;;;;;;;;15.50;68.10;;;;;;5016142;28;20033;-61
2022/09/29 13:08:39;;;;;;;0.80;0.50;;;15.40;68.10;;;;;;5016333;28;19913;-61
2022/09/29 13:11:42;;;;;;;1.17;0.50;;;15.40;68.30;;;;;;5015689;28;20080;-61
2022/09/29 13:14:42;;;;;;;1.00;0.40;;;15.30;69.30;;;;;;5018042;28;20045;-61
2022/09/29 13:17:25;;;;;;;0.40;0.35;;;15.30;68.80;;;;;;5015552;28;20120;-61